Time;durP1;ratioP1;P1;durP2;ratioP2;P2;SDS_P1;SDS_P2;PMS_P1;PMS_P2;Temp;Humidity;BMP_temperature;BMP_pressure;BME280_temperature;BME280_humidity;BME280_pressure;Samples;Min_cycle;Max_cycle;Signal;HPM_P1;HPM_P2
2023/09/06 00:02:44;;;;;;;4.55;1.92;;;;;;;20.29;64.36;100808.41;10269888;28;20034;-78
2023/09/06 00:07:48;;;;;;;3.85;2.22;;;;;;;20.31;64.35;100809.09;10269014;28;20055;-78
2023/09/06 00:12:51;;;;;;;4.78;2.00;;;;;;;20.21;64.41;100804.88;10265311;28;20046;-78
2023/09/06 00:17:54;;;;;;;5.22;2.13;;;;;;;20.04;65.05;100801.34;10283783;28;20602;-77
2023/09/06 00:23:00;;;;;;;3.88;1.83;;;;;;;20.02;64.92;100798.81;10267637;28;20565;-77
2023/09/06 00:28:05;;;;;;;3.50;2.13;;;;;;;19.97;64.91;100803.09;10267426;28;20380;-77
2023/09/06 00:33:08;;;;;;;4.30;2.10;;;;;;;19.99;65.12;100799.16;10281836;28;20498;-77
2023/09/06 00:38:12;;;;;;;3.78;2.13;;;;;;;20.08;64.76;100811.75;10261121;28;20042;-77
2023/09/06 00:43:15;;;;;;;3.15;2.15;;;;;;;20.08;64.83;100809.03;10265966;28;20043;-77
2023/09/06 00:48:22;;;;;;;2.35;1.92;;;;;;;20.08;64.54;100805.44;10280746;28;20502;-77
2023/09/06 00:53:27;;;;;;;4.13;1.63;;;;;;;20.10;64.62;100815.16;10263928;28;20051;-78
2023/09/06 00:58:32;;;;;;;4.75;1.88;;;;;;;20.03;64.56;100811.41;10270648;28;20499;-77
2023/09/06 01:03:35;;;;;;;3.78;1.95;;;;;;;19.99;64.68;100811.94;10275710;28;20059;-77
2023/09/06 01:08:46;;;;;;;3.78;2.28;;;;;;;19.93;65.06;100816.22;10264402;28;20803;-77
2023/09/06 01:13:50;;;;;;;2.25;2.05;;;;;;;19.93;64.75;100818.94;10263577;28;20065;-77
2023/09/06 01:18:53;;;;;;;1.75;1.65;;;;;;;19.80;65.28;100813.19;10265249;28;20147;-77
2023/09/06 01:24:01;;;;;;;3.58;2.00;;;;;;;19.71;65.47;100816.97;10266133;28;20059;-77
2023/09/06 01:29:05;;;;;;;2.88;1.80;;;;;;;19.70;65.79;100823.47;10259925;28;20047;-77
2023/09/06 01:34:07;;;;;;;3.40;2.08;;;;;;;19.79;65.76;100822.41;10277258;28;20045;-77
2023/09/06 01:39:12;;;;;;;5.82;2.50;;;;;;;19.75;65.37;100821.91;10264921;28;20094;-77
2023/09/06 01:44:15;;;;;;;3.70;2.17;;;;;;;19.54;66.02;100833.31;10287712;28;20051;-78
2023/09/06 01:49:17;;;;;;;2.88;2.10;;;;;;;19.44;65.92;100836.25;10289961;28;20058;-79
2023/09/06 01:54:22;;;;;;;3.25;2.20;;;;;;;19.38;66.30;100834.19;10265372;28;20050;-79
2023/09/06 01:59:25;;;;;;;4.50;2.08;;;;;;;19.33;66.42;100831.09;10284726;28;20070;-78
2023/09/06 02:04:27;;;;;;;3.97;2.20;;;;;;;19.24;66.58;100835.72;10268897;28;20565;-78
2023/09/06 02:09:32;;;;;;;2.33;1.88;;;;;;;19.22;66.78;100836.91;10269922;28;20043;-79
2023/09/06 02:14:36;;;;;;;2.70;2.13;;;;;;;19.11;66.89;100842.69;10273143;28;20039;-79
2023/09/06 02:19:39;;;;;;;2.70;2.40;;;;;;;19.03;67.18;100848.97;10266092;28;20409;-78
2023/09/06 02:24:43;;;;;;;4.60;2.60;;;;;;;19.02;67.29;100856.28;10262402;28;20058;-78
2023/09/06 02:29:46;;;;;;;2.28;2.08;;;;;;;18.94;67.22;100874.50;10255795;28;20361;-78
2023/09/06 02:34:50;;;;;;;3.95;2.15;;;;;;;18.80;67.50;100873.28;10274243;28;20113;-77
2023/09/06 02:39:54;;;;;;;3.80;2.30;;;;;;;18.66;68.12;100872.00;10265130;28;20039;-78
2023/09/06 02:44:57;;;;;;;4.57;2.05;;;;;;;18.54;68.42;100870.59;10256101;28;20502;-77
2023/09/06 02:50:05;;;;;;;3.33;2.60;;;;;;;18.20;69.21;100885.09;10257223;28;20453;-78
2023/09/06 02:55:10;;;;;;;2.53;2.33;;;;;;;17.99;70.46;100876.47;10251881;28;20044;-78
2023/09/06 03:00:24;;;;;;;7.63;3.15;;;;;;;18.12;70.48;100879.59;10264689;28;20035;-78
2023/09/06 03:05:29;;;;;;;3.03;2.78;;;;;;;17.91;70.72;100874.53;10255284;28;20058;-77
2023/09/06 03:10:34;;;;;;;7.88;3.00;;;;;;;17.83;71.35;100882.66;10273738;28;20043;-78
2023/09/06 03:15:43;;;;;;;3.83;2.65;;;;;;;17.97;70.99;100879.38;10250767;28;20481;-77
2023/09/06 03:20:47;;;;;;;2.67;2.47;;;;;;;18.06;70.72;100877.53;10265811;28;20670;-77
2023/09/06 03:25:59;;;;;;;3.58;2.67;;;;;;;18.16;70.42;100886.44;10270023;28;20059;-77
2023/09/06 03:31:09;;;;;;;3.58;2.70;;;;;;;17.98;70.95;100878.34;10274184;28;20053;-78
2023/09/06 03:36:13;;;;;;;4.97;2.55;;;;;;;18.02;70.80;100884.28;10268123;28;20042;-77
2023/09/06 03:41:19;;;;;;;2.92;2.05;;;;;;;18.05;70.78;100890.28;10262448;28;20121;-77
2023/09/06 03:46:22;;;;;;;7.45;2.88;;;;;;;17.85;71.17;100891.47;10278991;28;20047;-78
2023/09/06 03:51:25;;;;;;;2.42;2.22;;;;;;;17.76;71.76;100893.28;10283269;28;20114;-77
2023/09/06 03:56:29;;;;;;;4.00;2.75;;;;;;;17.33;72.80;100899.56;10257992;28;20126;-77
2023/09/06 04:01:32;;;;;;;5.32;2.80;;;;;;;17.02;74.01;100897.19;10272193;28;20387;-78
2023/09/06 04:06:36;;;;;;;2.17;2.05;;;;;;;16.86;74.73;100891.59;10267353;28;20074;-78
2023/09/06 04:11:41;;;;;;;5.75;2.70;;;;;;;16.97;74.63;100896.78;10271844;28;20552;-78
2023/09/06 04:16:44;;;;;;;3.42;2.33;;;;;;;16.86;74.82;100902.44;10253689;28;20071;-77
2023/09/06 04:21:49;;;;;;;4.15;2.22;;;;;;;17.03;74.66;100899.78;10257484;28;20103;-77
2023/09/06 04:26:55;;;;;;;3.88;2.83;;;;;;;17.23;73.68;100910.50;10262276;28;20051;-78
2023/09/06 04:31:58;;;;;;;2.97;2.63;;;;;;;17.36;72.52;100902.81;10257154;28;20067;-78
2023/09/06 04:37:03;;;;;;;3.90;2.70;;;;;;;17.08;72.91;100914.72;10253167;28;20039;-77
2023/09/06 04:42:11;;;;;;;5.45;2.50;;;;;;;17.13;73.16;100918.72;10273025;28;20051;-77
2023/09/06 04:47:15;;;;;;;7.75;2.92;;;;;;;17.23;72.14;100915.94;10268136;28;20047;-78
2023/09/06 04:52:18;;;;;;;6.07;2.15;;;;;;;17.03;71.29;100921.47;10256202;28;20164;-77
2023/09/06 04:57:25;;;;;;;2.28;2.08;;;;;;;17.09;71.97;100933.59;10255154;28;20493;-77
2023/09/06 05:02:28;;;;;;;3.83;2.25;;;;;;;17.22;71.53;100933.22;10250066;28;20039;-77
2023/09/06 05:07:31;;;;;;;4.22;2.42;;;;;;;17.29;71.24;100926.16;10260981;28;20126;-77
2023/09/06 05:12:39;;;;;;;7.38;2.75;;;;;;;17.35;71.17;100935.56;10272417;28;20095;-78
2023/09/06 05:17:43;;;;;;;4.75;3.00;;;;;;;17.47;71.52;100942.47;10260599;28;20051;-78
2023/09/06 05:22:46;;;;;;;5.18;2.85;;;;;;;17.52;71.88;100944.69;10263230;28;20103;-78
2023/09/06 05:27:50;;;;;;;2.60;2.40;;;;;;;17.64;71.72;100949.75;10267526;28;20067;-78
2023/09/06 05:32:56;;;;;;;6.35;2.72;;;;;;;17.71;70.95;100949.94;10296984;28;20071;-78
2023/09/06 05:38:00;;;;;;;3.13;2.42;;;;;;;17.69;70.79;100960.16;10276849;28;20103;-78
2023/09/06 05:43:05;;;;;;;1.83;1.60;;;;;;;17.85;71.12;100953.97;10271894;28;20046;-78
2023/09/06 05:48:09;;;;;;;3.20;2.22;;;;;;;18.18;70.44;100963.22;10270468;28;20035;-77
2023/09/06 05:53:29;;;;;;;5.60;2.90;;;;;;;18.56;69.24;100963.78;10256399;28;20517;-78
2023/09/06 05:58:37;;;;;;;3.60;2.15;;;;;;;18.63;68.84;100969.44;10264303;28;20411;-80
2023/09/06 06:03:43;;;;;;;3.58;3.22;;;;;;;18.78;68.46;100963.22;10277183;28;20483;-79
2023/09/06 06:08:46;;;;;;;4.07;2.42;;;;;;;18.88;68.58;100960.38;10260460;28;20051;-79
2023/09/06 06:13:51;;;;;;;5.88;2.90;;;;;;;19.12;67.89;100966.94;10268774;28;20097;-80
2023/09/06 06:19:11;;;;;;;4.88;2.97;;;;;;;19.07;68.05;100972.88;10260960;28;20098;-80
2023/09/06 06:24:14;;;;;;;4.50;2.67;;;;;;;19.18;68.08;100967.13;10263584;28;20541;-78
2023/09/06 06:29:18;;;;;;;5.22;2.67;;;;;;;19.34;67.55;100973.63;10262625;28;20063;-80
2023/09/06 06:34:24;;;;;;;6.90;3.03;;;;;;;19.61;67.22;100972.47;10288898;28;20063;-79
2023/09/06 06:39:27;;;;;;;3.28;2.97;;;;;;;19.61;67.30;100983.38;10278251;28;20415;-79
2023/09/06 06:44:31;;;;;;;5.22;3.08;;;;;;;19.74;67.42;100985.59;10277653;28;20046;-79
2023/09/06 06:49:34;;;;;;;3.78;2.90;;;;;;;20.07;66.10;100986.44;10269399;28;20047;-79
2023/09/06 06:54:41;;;;;;;9.52;3.55;;;;;;;19.93;64.99;100985.25;10259111;28;20422;-81
2023/09/06 06:59:47;;;;;;;4.25;3.13;;;;;;;20.19;65.48;100989.69;10272636;28;20058;-81
2023/09/06 07:04:50;;;;;;;5.95;3.40;;;;;;;20.91;64.19;100986.91;10270261;28;20059;-81
2023/09/06 07:09:53;;;;;;;9.25;3.55;;;;;;;21.03;63.14;100985.47;10277781;28;20090;-82
2023/09/06 07:14:58;;;;;;;5.75;3.63;;;;;;;21.28;62.68;100979.91;10278982;28;20051;-82
2023/09/06 07:20:01;;;;;;;6.38;3.67;;;;;;;21.48;61.26;100986.63;10263426;28;20036;-82
2023/09/06 07:25:05;;;;;;;6.60;3.95;;;;;;;21.67;60.26;100982.56;10270011;28;20047;-81
2023/09/06 07:30:10;;;;;;;9.73;4.63;;;;;;;21.75;60.08;100981.66;10272361;28;20125;-80
2023/09/06 07:35:13;;;;;;;12.10;4.93;;;;;;;22.27;59.66;100992.63;10264961;28;20094;-81
2023/09/06 07:40:17;;;;;;;11.45;5.18;;;;;;;22.68;58.18;100984.00;10268329;28;20054;-80
2023/09/06 07:45:21;;;;;;;9.05;4.75;;;;;;;22.88;58.49;100992.47;10280390;28;20383;-83
2023/09/06 07:50:24;;;;;;;11.40;4.93;;;;;;;23.30;57.92;100987.31;10269076;28;20046;-81
2023/09/06 07:55:27;;;;;;;8.48;4.90;;;;;;;23.15;56.93;100988.22;10282960;28;20462;-82
2023/09/06 08:00:32;;;;;;;8.60;5.25;;;;;;;23.63;56.35;100993.13;10271286;28;20103;-82
2023/09/06 08:05:36;;;;;;;9.45;5.03;;;;;;;23.62;55.61;100997.78;10272625;28;20035;-81
2023/09/06 08:10:40;;;;;;;10.23;5.22;;;;;;;23.65;55.54;100989.16;10271770;28;20475;-80
2023/09/06 08:15:45;;;;;;;8.35;4.43;;;;;;;24.30;55.40;100998.19;10285111;28;20039;-80
2023/09/06 08:20:48;;;;;;;11.55;4.53;;;;;;;24.73;52.56;100998.03;10265467;28;20043;-79
2023/09/06 08:25:51;;;;;;;7.75;4.00;;;;;;;24.98;52.67;100992.03;10260782;28;20047;-80
2023/09/06 08:30:56;;;;;;;6.03;3.90;;;;;;;25.73;51.35;100994.84;10266270;28;20078;-78
2023/09/06 08:35:59;;;;;;;4.53;2.90;;;;;;;26.48;49.67;100996.28;10271247;28;20074;-77
2023/09/06 08:41:02;;;;;;;4.22;2.67;;;;;;;26.48;47.58;100999.06;10272952;28;20417;-76
2023/09/06 08:46:12;;;;;;;4.13;3.00;;;;;;;26.45;47.70;100995.88;10272193;28;20412;-77
2023/09/06 08:51:16;;;;;;;5.32;2.53;;;;;;;26.41;48.34;100992.72;10275150;28;20047;-77
2023/09/06 08:56:20;;;;;;;6.00;2.65;;;;;;;26.66;47.57;100998.38;10280021;28;20050;-78
2023/09/06 09:01:25;;;;;;;3.28;2.63;;;;;;;27.06;48.02;100994.66;10268061;28;20055;-78
2023/09/06 09:06:29;;;;;;;2.38;2.10;;;;;;;27.37;47.08;100991.97;10289798;28;20079;-79
2023/09/06 09:11:32;;;;;;;5.18;2.40;;;;;;;27.38;45.06;100998.31;10278869;28;20509;-78
2023/09/06 09:16:38;;;;;;;10.25;2.58;;;;;;;27.76;45.67;100994.69;10271951;28;20630;-77
2023/09/06 09:21:42;;;;;;;3.78;2.05;;;;;;;28.12;45.41;100990.41;10278732;28;20079;-77
2023/09/06 09:26:44;;;;;;;3.85;2.63;;;;;;;28.21;45.83;100984.34;10285146;28;20053;-78
2023/09/06 09:31:49;;;;;;;5.90;2.50;;;;;;;28.33;44.75;100986.34;10279199;28;20043;-77
2023/09/06 09:36:52;;;;;;;2.97;2.22;;;;;;;28.54;45.20;100990.63;10279133;28;20050;-77
2023/09/06 09:41:57;;;;;;;2.33;2.10;;;;;;;28.66;44.19;100984.13;10287019;28;20049;-77
2023/09/06 09:47:11;;;;;;;4.47;2.13;;;;;;;29.22;43.72;100973.88;10301731;28;20209;-77
2023/09/06 09:52:34;;;;;;;4.45;2.08;;;;;;;29.71;42.51;100971.88;10297359;28;20075;-76
2023/09/06 09:57:38;;;;;;;6.45;2.50;;;;;;;29.35;43.22;100981.13;10287960;28;20045;-77
2023/09/06 10:02:45;;;;;;;4.00;2.30;;;;;;;29.66;42.93;100973.69;10282002;28;20066;-77
2023/09/06 10:07:49;;;;;;;3.58;2.28;;;;;;;30.00;42.80;100975.63;10276881;28;20039;-76
2023/09/06 10:12:53;;;;;;;6.78;2.08;;;;;;;30.33;41.44;100974.22;10283704;28;20756;-77
2023/09/06 10:17:59;;;;;;;5.82;2.38;;;;;;;30.75;40.77;100970.47;10282829;28;20043;-76
2023/09/06 10:23:04;;;;;;;2.70;2.20;;;;;;;30.38;41.45;100974.34;10285305;28;20043;-77
2023/09/06 10:28:08;;;;;;;2.78;2.20;;;;;;;30.78;40.93;100973.59;10284967;28;20043;-77
2023/09/06 10:33:48;;;;;;;4.90;3.10;;;;;;;31.18;39.49;100972.75;10290664;28;20038;-77
2023/09/06 10:39:16;;;;;;;3.15;2.25;;;;;;;31.33;39.82;100961.13;10275360;28;20522;-75
2023/09/06 10:44:20;;;;;;;6.75;2.63;;;;;;;32.01;38.20;100965.66;10266010;28;20098;-76
2023/09/06 10:49:25;;;;;;;2.40;2.20;;;;;;;31.74;37.74;100962.69;10303313;28;20413;-76
2023/09/06 10:54:35;;;;;;;2.80;2.40;;;;;;;31.97;37.29;100958.91;10290730;28;20122;-76
2023/09/06 10:59:40;;;;;;;4.65;2.20;;;;;;;33.06;36.72;100953.75;10289694;28;20109;-78
2023/09/06 11:04:44;;;;;;;3.13;2.25;;;;;;;34.63;34.19;100949.78;10280779;28;20183;-77
2023/09/06 11:09:50;;;;;;;2.42;2.22;;;;;;;34.71;33.15;100954.84;10282843;28;20414;-77
2023/09/06 11:14:55;;;;;;;5.35;2.25;;;;;;;35.05;32.96;100946.03;10286882;28;20395;-78
2023/09/06 11:20:10;;;;;;;2.33;2.13;;;;;;;35.69;31.83;100945.59;10300808;28;20066;-77
2023/09/06 11:25:17;;;;;;;2.40;2.20;;;;;;;35.90;32.01;100940.84;10285870;28;20046;-76
2023/09/06 11:30:21;;;;;;;3.83;2.17;;;;;;;35.67;30.55;100938.63;10276374;28;20066;-77
2023/09/06 11:35:29;;;;;;;2.17;1.98;;;;;;;36.28;30.53;100938.53;10285808;28;20050;-78
2023/09/06 11:40:34;;;;;;;5.88;2.33;;;;;;;36.09;30.17;100935.50;10284222;28;20043;-77
2023/09/06 11:45:41;;;;;;;2.33;2.22;;;;;;;35.32;29.55;100940.22;10278260;28;20044;-76
2023/09/06 11:50:50;;;;;;;2.20;1.95;;;;;;;35.38;29.90;100941.06;10279794;28;20054;-77
2023/09/06 11:55:54;;;;;;;3.05;2.10;;;;;;;36.15;29.69;100928.81;10292948;28;20165;-78
2023/09/06 12:01:00;;;;;;;4.68;2.25;;;;;;;36.54;29.48;100927.31;10281409;28;20058;-77
2023/09/06 12:06:07;;;;;;;4.10;1.73;;;;;;;36.81;29.21;100930.56;10281263;28;20053;-76
2023/09/06 12:11:14;;;;;;;4.00;2.05;;;;;;;36.50;30.30;100912.22;10279785;28;20058;-77
2023/09/06 12:16:18;;;;;;;2.67;2.15;;;;;;;35.78;32.23;100915.13;10283988;28;20070;-76
2023/09/06 12:21:22;;;;;;;3.40;2.28;;;;;;;35.28;31.01;100916.78;10278791;28;20051;-77
2023/09/06 12:26:26;;;;;;;2.58;2.30;;;;;;;34.67;31.47;100917.47;10277819;28;20030;-77
2023/09/06 12:31:28;;;;;;;4.10;1.73;;;;;;;35.25;31.05;100908.97;10282214;28;20046;-77
2023/09/06 12:36:33;;;;;;;5.53;2.20;;;;;;;35.56;31.35;100900.63;10282923;28;20158;-77
2023/09/06 12:41:36;;;;;;;2.45;2.00;;;;;;;37.52;28.06;100896.75;10281041;28;20042;-77
2023/09/06 12:46:39;;;;;;;4.18;1.95;;;;;;;38.23;28.38;100890.47;10279836;28;20040;-78
2023/09/06 12:51:47;;;;;;;4.88;2.00;;;;;;;37.99;26.73;100884.00;10280359;28;20053;-77
2023/09/06 12:56:50;;;;;;;3.20;2.20;;;;;;;37.76;26.66;100880.88;10277136;28;20039;-78
2023/09/06 13:01:53;;;;;;;3.83;2.20;;;;;;;38.06;26.96;100887.28;10279846;28;20051;-78
2023/09/06 13:06:57;;;;;;;1.92;1.80;;;;;;;37.87;25.51;100884.41;10278761;28;20098;-78
2023/09/06 13:12:00;;;;;;;2.85;1.48;;;;;;;37.05;26.92;100882.25;10277567;28;20054;-77
2023/09/06 13:17:04;;;;;;;3.75;2.17;;;;;;;36.94;27.43;100875.06;10278986;28;20099;-78
2023/09/06 13:22:08;;;;;;;6.22;1.80;;;;;;;36.06;27.85;100877.38;10274583;28;20498;-76
2023/09/06 13:27:11;;;;;;;5.13;1.80;;;;;;;35.50;28.78;100880.25;10279080;28;20038;-78
2023/09/06 13:32:14;;;;;;;7.15;2.13;;;;;;;35.67;29.76;100868.78;10274902;28;20503;-77
2023/09/06 13:37:19;;;;;;;2.95;1.88;;;;;;;35.60;29.19;100877.44;10278818;28;20059;-76
2023/09/06 13:42:23;;;;;;;4.07;2.10;;;;;;;34.95;30.44;100863.13;10272155;28;20043;-77
2023/09/06 13:47:26;;;;;;;8.65;2.00;;;;;;;36.04;30.14;100860.06;10274426;28;20040;-78
2023/09/06 13:52:30;;;;;;;3.50;1.85;;;;;;;35.74;29.83;100855.38;10287248;28;20059;-76
2023/09/06 13:57:33;;;;;;;2.03;1.70;;;;;;;35.19;30.34;100843.06;10271355;28;20043;-77
2023/09/06 14:02:36;;;;;;;2.80;1.58;;;;;;;35.51;29.33;100843.63;10269168;28;20049;-77
2023/09/06 14:07:40;;;;;;;2.53;1.70;;;;;;;35.83;30.04;100836.88;10268543;28;20036;-77
2023/09/06 14:12:43;;;;;;;4.55;2.28;;;;;;;35.25;29.05;100841.97;10272772;28;20059;-77
2023/09/06 14:17:46;;;;;;;2.50;2.03;;;;;;;35.50;29.28;100838.34;10271518;28;20058;-76
2023/09/06 14:22:54;;;;;;;3.25;1.67;;;;;;;35.88;28.36;100831.28;10276172;28;20498;-77
2023/09/06 14:27:57;;;;;;;2.78;1.90;;;;;;;35.04;28.51;100835.53;10272044;28;20118;-77
2023/09/06 14:33:00;;;;;;;2.03;1.80;;;;;;;34.85;29.15;100833.22;10274958;28;20498;-77
2023/09/06 14:38:05;;;;;;;6.97;1.98;;;;;;;35.38;30.07;100826.59;10273902;28;20046;-77
2023/09/06 14:43:08;;;;;;;3.15;1.80;;;;;;;35.06;29.62;100824.94;10262799;28;20043;-76
2023/09/06 14:48:11;;;;;;;2.33;1.90;;;;;;;34.61;30.75;100813.41;10263445;28;20126;-74
2023/09/06 14:53:16;;;;;;;2.60;1.80;;;;;;;34.95;29.90;100807.31;10261540;28;20043;-76
2023/09/06 14:58:19;;;;;;;2.03;1.65;;;;;;;34.93;30.52;100805.91;10262644;28;20049;-76
2023/09/06 15:03:23;;;;;;;2.85;2.05;;;;;;;34.83;30.59;100810.38;10263194;28;20480;-76
2023/09/06 15:08:28;;;;;;;3.53;1.67;;;;;;;34.77;30.86;100813.41;10275031;28;20043;-76
2023/09/06 15:13:31;;;;;;;3.78;2.10;;;;;;;34.71;30.15;100806.16;10279306;28;20097;-77
2023/09/06 15:18:34;;;;;;;2.10;1.90;;;;;;;34.79;30.87;100794.44;10263830;28;20060;-77
2023/09/06 15:23:39;;;;;;;3.33;2.35;;;;;;;34.15;31.58;100792.88;10271920;28;20042;-76
2023/09/06 15:28:42;;;;;;;2.97;2.42;;;;;;;34.29;31.45;100796.00;10268504;28;20055;-77
2023/09/06 15:33:45;;;;;;;2.72;1.70;;;;;;;34.44;31.60;100787.66;10268079;28;20047;-76
2023/09/06 15:38:49;;;;;;;5.72;1.95;;;;;;;34.28;31.80;100789.56;10267055;28;20039;-77
2023/09/06 15:43:52;;;;;;;7.00;1.95;;;;;;;34.17;31.88;100787.84;10266089;28;20050;-77
2023/09/06 15:48:56;;;;;;;16.80;2.38;;;;;;;34.13;32.47;100790.34;10270062;28;20039;-77
2023/09/06 15:54:00;;;;;;;5.80;1.90;;;;;;;33.72;32.30;100792.06;10269927;28;20055;-77
2023/09/06 15:59:04;;;;;;;3.55;2.30;;;;;;;33.75;32.15;100789.56;10270272;28;20047;-77
2023/09/06 16:04:07;;;;;;;5.72;1.85;;;;;;;33.95;32.38;100790.78;10271039;28;20490;-77
2023/09/06 16:09:12;;;;;;;2.10;1.85;;;;;;;33.88;32.70;100785.47;10272290;28;20046;-77
2023/09/06 16:14:15;;;;;;;4.32;1.70;;;;;;;33.50;32.64;100795.78;10268815;28;20067;-75
2023/09/06 16:19:20;;;;;;;3.30;2.00;;;;;;;33.47;32.48;100792.72;10269375;28;20431;-75
2023/09/06 16:24:25;;;;;;;1.77;1.40;;;;;;;33.03;32.22;100795.69;10262936;28;20047;-76
2023/09/06 16:29:27;;;;;;;1.50;1.25;;;;;;;32.69;32.71;100793.13;10262986;28;20038;-76
2023/09/06 16:34:30;;;;;;;3.67;1.70;;;;;;;32.27;32.50;100795.69;10267902;28;20042;-77
2023/09/06 16:39:35;;;;;;;4.03;1.80;;;;;;;31.96;32.52;100800.84;10265029;28;20035;-75
2023/09/06 16:44:41;;;;;;;5.13;2.58;;;;;;;31.88;32.64;100806.84;10265419;28;20063;-75
2023/09/06 16:49:47;;;;;;;3.42;1.95;;;;;;;31.69;33.16;100801.56;10264854;28;20118;-75
2023/09/06 16:54:51;;;;;;;2.13;1.90;;;;;;;31.58;33.49;100805.25;10267767;28;20494;-76
2023/09/06 16:59:54;;;;;;;2.72;1.38;;;;;;;31.33;34.50;100800.16;10266029;28;20046;-76
2023/09/06 17:04:57;;;;;;;2.17;1.45;;;;;;;31.14;34.86;100810.63;10267033;28;20043;-76
2023/09/06 17:10:01;;;;;;;2.47;2.28;;;;;;;30.83;35.18;100809.25;10263997;28;20446;-75
2023/09/06 17:15:13;;;;;;;2.50;1.83;;;;;;;30.48;35.96;100808.28;10268391;28;20075;-75
2023/09/06 17:20:18;;;;;;;4.82;1.45;;;;;;;30.15;36.42;100805.41;10261808;28;20054;-75
2023/09/06 17:25:22;;;;;;;3.22;2.00;;;;;;;29.71;37.09;100813.25;10253595;28;20047;-76
2023/09/06 17:30:25;;;;;;;3.70;2.05;;;;;;;29.45;37.45;100818.13;10261065;28;20074;-76
2023/09/06 17:35:30;;;;;;;7.47;2.00;;;;;;;29.28;38.23;100811.63;10266616;28;20325;-75
2023/09/06 17:40:35;;;;;;;1.80;1.70;;;;;;;28.80;39.63;100821.72;10265526;28;20114;-76
2023/09/06 17:45:38;;;;;;;4.65;2.00;;;;;;;28.25;41.15;100814.34;10263150;28;20035;-76
2023/09/06 17:50:42;;;;;;;1.98;1.77;;;;;;;27.59;42.74;100826.06;10259930;28;20055;-75
2023/09/06 17:55:50;;;;;;;5.05;2.10;;;;;;;27.28;43.56;100825.03;10263354;28;20407;-75
2023/09/06 18:00:53;;;;;;;4.22;2.35;;;;;;;26.91;43.66;100829.56;10240908;28;20055;-76
2023/09/06 18:05:57;;;;;;;4.10;2.53;;;;;;;26.86;43.83;100826.63;10224646;28;20534;-76
2023/09/06 18:11:06;;;;;;;6.07;2.85;;;;;;;26.74;44.29;100831.94;10224607;28;20059;-76
2023/09/06 18:16:11;;;;;;;5.30;3.00;;;;;;;26.41;45.19;100823.84;10221988;28;20058;-76
2023/09/06 18:21:14;;;;;;;5.35;2.75;;;;;;;26.45;45.30;100827.88;10223671;28;20047;-76
2023/09/06 18:26:18;;;;;;;3.53;2.80;;;;;;;26.38;45.70;100827.91;10225024;28;20051;-76
2023/09/06 18:31:22;;;;;;;6.82;2.65;;;;;;;26.20;46.47;100822.25;10223611;28;20611;-76
2023/09/06 18:36:25;;;;;;;3.45;2.67;;;;;;;25.99;48.20;100823.34;10220796;28;20070;-76
2023/09/06 18:41:29;;;;;;;3.67;2.50;;;;;;;25.82;47.85;100828.47;10215796;28;20150;-75
2023/09/06 18:46:32;;;;;;;3.40;2.33;;;;;;;25.58;48.37;100833.53;10223122;28;20716;-75
2023/09/06 18:51:35;;;;;;;5.00;2.45;;;;;;;25.54;49.11;100835.03;10226537;28;20047;-74
2023/09/06 18:56:40;;;;;;;4.72;2.08;;;;;;;25.39;49.25;100846.25;10231354;28;20050;-74
2023/09/06 19:01:43;;;;;;;2.45;1.98;;;;;;;25.31;49.42;100853.84;10228539;28;20047;-75
2023/09/06 19:06:45;;;;;;;4.32;2.33;;;;;;;25.25;49.81;100850.03;10229122;28;20058;-76
2023/09/06 19:11:50;;;;;;;2.95;2.08;;;;;;;25.15;50.42;100869.72;10229104;28;21869;-75
2023/09/06 19:16:53;;;;;;;5.53;2.38;;;;;;;25.10;50.44;100869.50;10230230;28;20113;-74
2023/09/06 19:21:55;;;;;;;2.58;1.95;;;;;;;25.11;50.74;100864.84;10229884;28;20079;-76
2023/09/06 19:27:00;;;;;;;3.28;2.17;;;;;;;24.71;51.72;100862.81;10228002;28;20048;-75
2023/09/06 19:32:03;;;;;;;2.65;2.25;;;;;;;24.70;51.95;100871.25;10227461;28;20521;-75
2023/09/06 19:37:06;;;;;;;3.17;2.42;;;;;;;24.66;52.20;100868.09;10232139;28;20050;-76
2023/09/06 19:42:11;;;;;;;3.35;2.38;;;;;;;24.41;52.60;100866.91;10227484;28;20057;-73
2023/09/06 19:47:16;;;;;;;3.72;2.63;;;;;;;24.13;53.96;100869.69;10228791;28;21182;-75
2023/09/06 19:52:19;;;;;;;3.13;2.33;;;;;;;23.83;55.06;100867.16;10223913;28;20105;-75
2023/09/06 19:57:24;;;;;;;3.45;2.42;;;;;;;23.71;55.50;100874.22;10223974;28;20134;-74
2023/09/06 20:02:28;;;;;;;3.20;2.58;;;;;;;23.59;55.83;100874.78;10229542;28;20518;-74
2023/09/06 20:07:31;;;;;;;3.75;2.70;;;;;;;23.49;56.42;100870.69;10227656;28;20180;-75
2023/09/06 20:12:35;;;;;;;4.85;3.55;;;;;;;23.42;56.73;100867.88;10222926;28;20604;-74
2023/09/06 20:17:38;;;;;;;4.75;2.10;;;;;;;23.09;56.91;100873.00;10225478;28;20601;-75
2023/09/06 20:22:41;;;;;;;3.28;2.53;;;;;;;23.09;57.02;100881.22;10217974;28;20055;-74
2023/09/06 20:27:46;;;;;;;2.72;2.35;;;;;;;23.07;57.22;100870.47;10226970;28;20043;-76
2023/09/06 20:32:48;;;;;;;2.80;2.38;;;;;;;23.02;57.61;100883.06;10225412;28;20452;-76
2023/09/06 20:37:51;;;;;;;4.07;2.17;;;;;;;22.98;57.21;100879.84;10223146;28;20145;-75
2023/09/06 20:42:56;;;;;;;3.63;2.35;;;;;;;23.02;57.31;100877.59;10233858;28;20097;-76
2023/09/06 20:47:59;;;;;;;6.18;2.42;;;;;;;22.90;57.42;100888.19;10229762;28;20051;-77
2023/09/06 20:53:02;;;;;;;4.25;2.60;;;;;;;22.58;58.25;100893.09;10230486;28;20074;-75
2023/09/06 20:58:07;;;;;;;4.82;2.70;;;;;;;22.38;59.32;100900.13;10230734;28;20051;-76
2023/09/06 21:03:09;;;;;;;4.90;2.80;;;;;;;22.31;59.49;100911.84;10235485;28;20924;-76
2023/09/06 21:08:12;;;;;;;3.38;3.08;;;;;;;22.48;59.06;100911.69;10220548;28;21273;-76
2023/09/06 21:13:17;;;;;;;3.72;2.80;;;;;;;22.60;59.10;100917.50;10222705;28;20836;-76
2023/09/06 21:18:19;;;;;;;3.55;3.22;;;;;;;22.68;58.72;100920.16;10223553;28;20140;-76
2023/09/06 21:23:23;;;;;;;4.28;2.88;;;;;;;22.74;58.39;100917.50;10223223;28;20494;-76
2023/09/06 21:28:27;;;;;;;7.90;2.85;;;;;;;22.82;58.26;100918.41;10215446;28;20051;-77
2023/09/06 21:33:31;;;;;;;5.82;3.28;;;;;;;22.82;58.01;100926.63;10224720;28;20466;-75
2023/09/06 21:38:36;;;;;;;4.43;4.00;;;;;;;22.80;58.11;100934.22;10230006;28;20050;-76
2023/09/06 21:43:40;;;;;;;5.85;3.88;;;;;;;22.77;58.63;100928.06;10226570;28;20061;-76
2023/09/06 21:48:43;;;;;;;6.55;4.07;;;;;;;22.66;58.45;100934.06;10223095;28;20050;-77
2023/09/06 21:53:46;;;;;;;5.35;3.20;;;;;;;22.40;59.43;100941.88;10218684;28;20417;-76
2023/09/06 21:58:50;;;;;;;7.32;3.78;;;;;;;21.99;60.73;100951.34;10224175;28;20053;-77
2023/09/06 22:03:53;;;;;;;8.27;3.67;;;;;;;21.89;61.21;100950.78;10222616;28;20423;-76
2023/09/06 22:09:15;;;;;;;5.10;3.40;;;;;;;21.85;62.00;100950.28;10216054;28;20066;-75
2023/09/06 22:14:38;;;;;;;7.13;4.40;;;;;;;21.86;61.59;100951.16;10218300;28;20314;-76
2023/09/06 22:19:40;;;;;;;5.80;3.40;;;;;;;21.80;61.57;100960.94;10235321;28;20047;-76
2023/09/06 22:24:43;;;;;;;4.85;3.88;;;;;;;21.57;62.39;100971.00;10215936;28;20051;-76
2023/09/06 22:29:47;;;;;;;6.05;3.30;;;;;;;21.25;63.51;100962.00;10228368;28;20043;-76
2023/09/06 22:34:50;;;;;;;4.07;3.78;;;;;;;21.15;64.29;100969.59;10231364;28;20051;-76
2023/09/06 22:39:53;;;;;;;6.00;3.63;;;;;;;21.10;65.21;100967.41;10229821;28;20540;-75
2023/09/06 22:44:57;;;;;;;5.10;3.90;;;;;;;21.12;65.16;100965.34;10232564;28;20744;-76
2023/09/06 22:50:00;;;;;;;5.55;3.67;;;;;;;21.02;64.44;100956.47;10222307;28;20039;-76
2023/09/06 22:55:03;;;;;;;3.92;3.15;;;;;;;21.04;64.26;100957.19;10230785;28;20073;-75
2023/09/06 23:00:09;;;;;;;5.15;4.18;;;;;;;21.21;63.76;100957.94;10227234;28;20051;-76
2023/09/06 23:05:12;;;;;;;4.28;3.78;;;;;;;21.27;62.78;100957.22;10219137;28;20744;-76
2023/09/06 23:10:16;;;;;;;10.10;4.00;;;;;;;21.29;63.27;100960.63;10227777;28;21058;-77
2023/09/06 23:15:23;;;;;;;5.45;3.83;;;;;;;21.11;62.52;100970.97;10245505;28;20047;-76
2023/09/06 23:20:28;;;;;;;4.82;4.15;;;;;;;20.94;62.90;100957.38;10224770;28;20062;-77